sensor_id;sensor_type;location;lat;lon;timestamp;temperature;humidity
74869;DHT22;63419;42.262;12.210;2022-09-24T00:01:54;12.90;99.90
74869;DHT22;63419;42.262;12.210;2022-09-24T00:04:24;13.00;99.90
74869;DHT22;63419;42.262;12.210;2022-09-24T00:06:53;13.10;99.90
74869;DHT22;63419;42.262;12.210;2022-09-24T00:09:21;13.10;99.90
74869;DHT22;63419;42.262;12.210;2022-09-24T00:11:49;13.20;99.90
74869;DHT22;63419;42.262;12.210;2022-09-24T00:14:19;13.20;99.90
74869;DHT22;63419;42.262;12.210;2022-09-24T00:16:46;13.30;99.90
74869;DHT22;63419;42.262;12.210;2022-09-24T00:19:14;13.30;99.90
74869;DHT22;63419;42.262;12.210;2022-09-24T00:21:42;13.30;99.90
74869;DHT22;63419;42.262;12.210;2022-09-24T00:24:20;13.40;99.90
74869;DHT22;63419;42.262;12.210;2022-09-24T00:27:06;13.50;99.90
74869;DHT22;63419;42.262;12.210;2022-09-24T00:29:33;13.60;99.90
74869;DHT22;63419;42.262;12.210;2022-09-24T00:32:03;13.60;99.90
74869;DHT22;63419;42.262;12.210;2022-09-24T00:34:31;13.70;99.90
74869;DHT22;63419;42.262;12.210;2022-09-24T00:37:00;13.80;99.90
74869;DHT22;63419;42.262;12.210;2022-09-24T00:39:27;13.80;99.90
74869;DHT22;63419;42.262;12.210;2022-09-24T00:41:54;13.80;99.90
74869;DHT22;63419;42.262;12.210;2022-09-24T00:50:12;13.80;99.90
74869;DHT22;63419;42.262;12.210;2022-09-24T00:53:08;13.70;99.90
74869;DHT22;63419;42.262;12.210;2022-09-24T00:55:37;13.70;99.90
74869;DHT22;63419;42.262;12.210;2022-09-24T00:58:08;13.60;99.90
74869;DHT22;63419;42.262;12.210;2022-09-24T01:00:37;13.70;99.90
74869;DHT22;63419;42.262;12.210;2022-09-24T01:03:11;13.60;99.90
74869;DHT22;63419;42.262;12.210;2022-09-24T01:05:42;13.50;99.90
74869;DHT22;63419;42.262;12.210;2022-09-24T01:08:16;13.40;99.90
74869;DHT22;63419;42.262;12.210;2022-09-24T01:23:11;13.00;99.90
74869;DHT22;63419;42.262;12.210;2022-09-24T01:32:29;12.90;99.90
74869;DHT22;63419;42.262;12.210;2022-09-24T01:35:27;12.90;99.90
74869;DHT22;63419;42.262;12.210;2022-09-24T01:38:08;12.80;99.90
74869;DHT22;63419;42.262;12.210;2022-09-24T01:40:59;12.80;99.90
74869;DHT22;63419;42.262;12.210;2022-09-24T01:43:29;12.80;99.90
74869;DHT22;63419;42.262;12.210;2022-09-24T01:46:00;12.80;99.90
74869;DHT22;63419;42.262;12.210;2022-09-24T01:48:30;12.80;99.90
74869;DHT22;63419;42.262;12.210;2022-09-24T01:53:52;12.80;99.90
74869;DHT22;63419;42.262;12.210;2022-09-24T01:56:47;12.80;99.90
74869;DHT22;63419;42.262;12.210;2022-09-24T01:59:27;12.80;99.90
74869;DHT22;63419;42.262;12.210;2022-09-24T02:02:32;12.80;99.90
74869;DHT22;63419;42.262;12.210;2022-09-24T02:08:22;12.80;99.90
74869;DHT22;63419;42.262;12.210;2022-09-24T02:11:10;12.80;99.90
74869;DHT22;63419;42.262;12.210;2022-09-24T02:14:06;12.80;99.90
74869;DHT22;63419;42.262;12.210;2022-09-24T02:16:48;12.80;99.90
74869;DHT22;63419;42.262;12.210;2022-09-24T02:19:26;12.70;99.90
74869;DHT22;63419;42.262;12.210;2022-09-24T02:22:06;12.70;99.90
74869;DHT22;63419;42.262;12.210;2022-09-24T02:24:53;12.70;99.90
74869;DHT22;63419;42.262;12.210;2022-09-24T02:27:30;12.70;99.90
74869;DHT22;63419;42.262;12.210;2022-09-24T02:30:04;12.70;99.90
74869;DHT22;63419;42.262;12.210;2022-09-24T02:32:40;12.70;99.90
74869;DHT22;63419;42.262;12.210;2022-09-24T02:35:13;12.70;99.90
74869;DHT22;63419;42.262;12.210;2022-09-24T02:37:44;12.70;99.90
74869;DHT22;63419;42.262;12.210;2022-09-24T02:40:23;12.70;99.90
74869;DHT22;63419;42.262;12.210;2022-09-24T02:42:55;12.70;99.90
74869;DHT22;63419;42.262;12.210;2022-09-24T02:45:25;12.70;99.90
74869;DHT22;63419;42.262;12.210;2022-09-24T02:47:55;12.70;99.90
74869;DHT22;63419;42.262;12.210;2022-09-24T02:50:30;12.80;99.90
74869;DHT22;63419;42.262;12.210;2022-09-24T02:53:03;12.80;99.90
74869;DHT22;63419;42.262;12.210;2022-09-24T02:55:31;12.80;99.90
74869;DHT22;63419;42.262;12.210;2022-09-24T02:58:03;12.80;99.90
74869;DHT22;63419;42.262;12.210;2022-09-24T03:00:34;12.80;99.90
74869;DHT22;63419;42.262;12.210;2022-09-24T03:03:07;12.80;99.90
74869;DHT22;63419;42.262;12.210;2022-09-24T03:05:42;12.70;99.90
74869;DHT22;63419;42.262;12.210;2022-09-24T03:08:15;12.70;99.90
74869;DHT22;63419;42.262;12.210;2022-09-24T03:10:44;12.70;99.90
74869;DHT22;63419;42.262;12.210;2022-09-24T03:13:20;12.70;99.90
74869;DHT22;63419;42.262;12.210;2022-09-24T03:15:51;12.70;99.90
74869;DHT22;63419;42.262;12.210;2022-09-24T03:18:22;12.70;99.90
74869;DHT22;63419;42.262;12.210;2022-09-24T03:21:02;12.70;99.90
74869;DHT22;63419;42.262;12.210;2022-09-24T03:23:36;12.80;99.90
74869;DHT22;63419;42.262;12.210;2022-09-24T03:26:09;12.80;99.90
74869;DHT22;63419;42.262;12.210;2022-09-24T03:28:38;12.90;99.90
74869;DHT22;63419;42.262;12.210;2022-09-24T03:31:09;12.90;99.90
74869;DHT22;63419;42.262;12.210;2022-09-24T03:33:47;12.90;99.90
74869;DHT22;63419;42.262;12.210;2022-09-24T03:36:23;12.90;99.90
74869;DHT22;63419;42.262;12.210;2022-09-24T03:38:56;12.90;99.90
74869;DHT22;63419;42.262;12.210;2022-09-24T03:41:28;12.90;99.90
74869;DHT22;63419;42.262;12.210;2022-09-24T03:43:58;12.80;99.90
74869;DHT22;63419;42.262;12.210;2022-09-24T03:46:28;12.80;99.90
74869;DHT22;63419;42.262;12.210;2022-09-24T03:49:03;12.90;99.90
74869;DHT22;63419;42.262;12.210;2022-09-24T03:51:35;13.00;99.90
74869;DHT22;63419;42.262;12.210;2022-09-24T03:54:07;13.00;99.90
74869;DHT22;63419;42.262;12.210;2022-09-24T03:56:35;13.00;99.90
74869;DHT22;63419;42.262;12.210;2022-09-24T03:59:06;13.00;99.90
74869;DHT22;63419;42.262;12.210;2022-09-24T04:01:41;13.10;99.90
74869;DHT22;63419;42.262;12.210;2022-09-24T04:04:11;13.10;99.90
74869;DHT22;63419;42.262;12.210;2022-09-24T04:06:43;13.10;99.90
74869;DHT22;63419;42.262;12.210;2022-09-24T04:09:15;13.10;99.90
74869;DHT22;63419;42.262;12.210;2022-09-24T04:11:47;13.20;99.90
74869;DHT22;63419;42.262;12.210;2022-09-24T04:14:15;13.30;99.90
74869;DHT22;63419;42.262;12.210;2022-09-24T04:16:47;13.40;99.90
74869;DHT22;63419;42.262;12.210;2022-09-24T04:19:20;13.50;99.90
74869;DHT22;63419;42.262;12.210;2022-09-24T04:21:51;13.50;99.90
74869;DHT22;63419;42.262;12.210;2022-09-24T04:24:30;13.40;99.90
74869;DHT22;63419;42.262;12.210;2022-09-24T04:27:02;13.50;99.90
74869;DHT22;63419;42.262;12.210;2022-09-24T04:29:33;13.50;99.90
74869;DHT22;63419;42.262;12.210;2022-09-24T04:32:04;13.40;99.90
74869;DHT22;63419;42.262;12.210;2022-09-24T04:34:35;13.40;99.90
74869;DHT22;63419;42.262;12.210;2022-09-24T04:37:05;13.20;99.90
74869;DHT22;63419;42.262;12.210;2022-09-24T04:39:37;13.10;99.90
74869;DHT22;63419;42.262;12.210;2022-09-24T04:42:08;13.20;99.90
74869;DHT22;63419;42.262;12.210;2022-09-24T04:44:44;13.00;99.90
74869;DHT22;63419;42.262;12.210;2022-09-24T04:47:22;13.00;99.90
74869;DHT22;63419;42.262;12.210;2022-09-24T04:49:53;12.80;99.90
74869;DHT22;63419;42.262;12.210;2022-09-24T04:52:23;12.80;99.90
74869;DHT22;63419;42.262;12.210;2022-09-24T04:54:59;12.70;99.90
74869;DHT22;63419;42.262;12.210;2022-09-24T04:57:30;12.70;99.90
74869;DHT22;63419;42.262;12.210;2022-09-24T05:00:07;12.60;99.90
74869;DHT22;63419;42.262;12.210;2022-09-24T05:02:44;12.60;99.90
74869;DHT22;63419;42.262;12.210;2022-09-24T05:05:15;12.50;99.90
74869;DHT22;63419;42.262;12.210;2022-09-24T05:07:47;12.60;99.90
74869;DHT22;63419;42.262;12.210;2022-09-24T05:10:20;12.60;99.90
74869;DHT22;63419;42.262;12.210;2022-09-24T05:12:52;12.60;99.90
74869;DHT22;63419;42.262;12.210;2022-09-24T05:15:22;12.60;99.90
74869;DHT22;63419;42.262;12.210;2022-09-24T05:17:54;12.70;99.90
74869;DHT22;63419;42.262;12.210;2022-09-24T05:20:24;12.80;99.90
74869;DHT22;63419;42.262;12.210;2022-09-24T05:22:57;12.80;99.90
74869;DHT22;63419;42.262;12.210;2022-09-24T05:25:27;12.80;99.90
74869;DHT22;63419;42.262;12.210;2022-09-24T05:28:00;12.90;99.90
74869;DHT22;63419;42.262;12.210;2022-09-24T05:30:29;12.80;99.90
74869;DHT22;63419;42.262;12.210;2022-09-24T05:33:01;12.80;99.90
74869;DHT22;63419;42.262;12.210;2022-09-24T05:35:31;12.90;99.90
74869;DHT22;63419;42.262;12.210;2022-09-24T05:38:04;12.80;99.90
74869;DHT22;63419;42.262;12.210;2022-09-24T05:40:35;12.90;99.90
74869;DHT22;63419;42.262;12.210;2022-09-24T05:43:19;12.90;99.90
74869;DHT22;63419;42.262;12.210;2022-09-24T05:45:51;12.90;99.90
74869;DHT22;63419;42.262;12.210;2022-09-24T05:48:25;13.10;99.90
74869;DHT22;63419;42.262;12.210;2022-09-24T05:51:00;13.20;99.90
74869;DHT22;63419;42.262;12.210;2022-09-24T05:53:34;13.30;99.90
74869;DHT22;63419;42.262;12.210;2022-09-24T05:56:06;13.50;99.90
74869;DHT22;63419;42.262;12.210;2022-09-24T05:58:35;13.70;99.90
74869;DHT22;63419;42.262;12.210;2022-09-24T06:01:09;13.80;99.90
74869;DHT22;63419;42.262;12.210;2022-09-24T06:03:39;14.00;99.90
74869;DHT22;63419;42.262;12.210;2022-09-24T06:06:10;14.10;99.90
74869;DHT22;63419;42.262;12.210;2022-09-24T06:08:43;14.20;99.90
74869;DHT22;63419;42.262;12.210;2022-09-24T06:11:14;14.40;99.90
74869;DHT22;63419;42.262;12.210;2022-09-24T06:13:56;14.60;99.90
74869;DHT22;63419;42.262;12.210;2022-09-24T06:16:30;15.00;99.90
74869;DHT22;63419;42.262;12.210;2022-09-24T06:19:04;15.30;99.90
74869;DHT22;63419;42.262;12.210;2022-09-24T06:21:37;15.50;99.90
74869;DHT22;63419;42.262;12.210;2022-09-24T06:24:09;15.90;99.90
74869;DHT22;63419;42.262;12.210;2022-09-24T06:26:41;16.00;99.90
74869;DHT22;63419;42.262;12.210;2022-09-24T06:29:11;16.20;99.90
74869;DHT22;63419;42.262;12.210;2022-09-24T06:31:39;16.30;99.90
74869;DHT22;63419;42.262;12.210;2022-09-24T06:34:07;16.30;99.90
74869;DHT22;63419;42.262;12.210;2022-09-24T06:36:34;16.30;99.90
74869;DHT22;63419;42.262;12.210;2022-09-24T06:39:01;16.50;99.90
74869;DHT22;63419;42.262;12.210;2022-09-24T06:41:29;16.50;99.90
74869;DHT22;63419;42.262;12.210;2022-09-24T06:43:56;16.80;99.90
74869;DHT22;63419;42.262;12.210;2022-09-24T06:46:24;16.90;99.90
74869;DHT22;63419;42.262;12.210;2022-09-24T06:48:52;17.00;99.90
74869;DHT22;63419;42.262;12.210;2022-09-24T06:51:22;16.90;99.90
74869;DHT22;63419;42.262;12.210;2022-09-24T06:53:51;17.00;99.90
74869;DHT22;63419;42.262;12.210;2022-09-24T06:56:19;17.20;99.90
74869;DHT22;63419;42.262;12.210;2022-09-24T06:58:47;17.10;99.90
74869;DHT22;63419;42.262;12.210;2022-09-24T07:01:14;17.30;99.90
74869;DHT22;63419;42.262;12.210;2022-09-24T07:03:41;17.30;99.90
74869;DHT22;63419;42.262;12.210;2022-09-24T07:06:08;17.20;99.90
74869;DHT22;63419;42.262;12.210;2022-09-24T07:08:35;17.40;99.90
74869;DHT22;63419;42.262;12.210;2022-09-24T07:11:03;17.40;99.90
74869;DHT22;63419;42.262;12.210;2022-09-24T07:13:31;17.50;99.90
74869;DHT22;63419;42.262;12.210;2022-09-24T07:15:58;17.40;99.90
74869;DHT22;63419;42.262;12.210;2022-09-24T07:18:27;17.30;99.90
74869;DHT22;63419;42.262;12.210;2022-09-24T07:20:55;17.60;99.90
74869;DHT22;63419;42.262;12.210;2022-09-24T07:23:25;17.90;99.90
74869;DHT22;63419;42.262;12.210;2022-09-24T07:25:56;18.10;99.90
74869;DHT22;63419;42.262;12.210;2022-09-24T07:28:24;18.20;99.90
74869;DHT22;63419;42.262;12.210;2022-09-24T07:30:58;18.10;99.90
74869;DHT22;63419;42.262;12.210;2022-09-24T07:33:30;18.10;99.90
74869;DHT22;63419;42.262;12.210;2022-09-24T07:35:58;18.10;99.90
74869;DHT22;63419;42.262;12.210;2022-09-24T07:38:25;18.00;99.90
74869;DHT22;63419;42.262;12.210;2022-09-24T07:40:56;17.80;99.90
74869;DHT22;63419;42.262;12.210;2022-09-24T07:43:24;18.10;99.90
74869;DHT22;63419;42.262;12.210;2022-09-24T07:45:52;17.80;99.90
74869;DHT22;63419;42.262;12.210;2022-09-24T07:48:21;17.70;99.90
74869;DHT22;63419;42.262;12.210;2022-09-24T07:50:48;17.80;99.90
74869;DHT22;63419;42.262;12.210;2022-09-24T07:53:16;17.70;99.90
74869;DHT22;63419;42.262;12.210;2022-09-24T07:55:47;17.90;99.90
74869;DHT22;63419;42.262;12.210;2022-09-24T07:58:15;17.80;99.90
74869;DHT22;63419;42.262;12.210;2022-09-24T08:00:42;17.80;99.90
74869;DHT22;63419;42.262;12.210;2022-09-24T08:03:09;18.10;99.90
74869;DHT22;63419;42.262;12.210;2022-09-24T08:05:42;18.00;99.90
74869;DHT22;63419;42.262;12.210;2022-09-24T08:08:11;17.90;99.90
74869;DHT22;63419;42.262;12.210;2022-09-24T08:10:42;17.70;99.90
74869;DHT22;63419;42.262;12.210;2022-09-24T08:13:09;18.00;99.90
74869;DHT22;63419;42.262;12.210;2022-09-24T08:15:37;17.80;99.90
74869;DHT22;63419;42.262;12.210;2022-09-24T08:18:04;18.00;99.90
74869;DHT22;63419;42.262;12.210;2022-09-24T08:20:33;18.20;99.90
74869;DHT22;63419;42.262;12.210;2022-09-24T08:23:04;18.20;99.90
74869;DHT22;63419;42.262;12.210;2022-09-24T08:25:35;17.90;99.90
74869;DHT22;63419;42.262;12.210;2022-09-24T08:28:04;18.20;99.90
74869;DHT22;63419;42.262;12.210;2022-09-24T08:30:33;18.70;99.90
74869;DHT22;63419;42.262;12.210;2022-09-24T08:33:01;19.00;99.90
74869;DHT22;63419;42.262;12.210;2022-09-24T08:35:33;19.20;99.90
74869;DHT22;63419;42.262;12.210;2022-09-24T08:38:02;19.10;99.90
74869;DHT22;63419;42.262;12.210;2022-09-24T08:40:32;19.10;99.90
74869;DHT22;63419;42.262;12.210;2022-09-24T08:43:44;19.70;99.90
74869;DHT22;63419;42.262;12.210;2022-09-24T08:46:29;20.10;99.90
74869;DHT22;63419;42.262;12.210;2022-09-24T08:49:39;20.40;99.90
74869;DHT22;63419;42.262;12.210;2022-09-24T08:52:18;20.20;99.90
74869;DHT22;63419;42.262;12.210;2022-09-24T08:54:52;20.40;99.90
74869;DHT22;63419;42.262;12.210;2022-09-24T08:57:23;19.20;99.90
74869;DHT22;63419;42.262;12.210;2022-09-24T08:59:54;19.20;99.90
74869;DHT22;63419;42.262;12.210;2022-09-24T09:02:48;20.10;99.90
74869;DHT22;63419;42.262;12.210;2022-09-24T09:05:46;20.60;99.90
74869;DHT22;63419;42.262;12.210;2022-09-24T09:11:28;19.20;99.90
74869;DHT22;63419;42.262;12.210;2022-09-24T09:14:19;19.50;99.90
74869;DHT22;63419;42.262;12.210;2022-09-24T09:20:05;19.20;99.90
74869;DHT22;63419;42.262;12.210;2022-09-24T09:22:43;19.50;99.90
74869;DHT22;63419;42.262;12.210;2022-09-24T09:28:10;19.30;99.90
74869;DHT22;63419;42.262;12.210;2022-09-24T09:40:08;19.60;99.90
74869;DHT22;63419;42.262;12.210;2022-09-24T09:43:02;19.90;99.90
74869;DHT22;63419;42.262;12.210;2022-09-24T09:45:40;20.20;99.90
74869;DHT22;63419;42.262;12.210;2022-09-24T09:48:35;19.50;99.90
74869;DHT22;63419;42.262;12.210;2022-09-24T09:51:25;19.00;99.90
74869;DHT22;63419;42.262;12.210;2022-09-24T09:54:00;18.60;99.90
74869;DHT22;63419;42.262;12.210;2022-09-24T09:56:31;18.50;99.90
74869;DHT22;63419;42.262;12.210;2022-09-24T10:01:38;18.60;99.90
74869;DHT22;63419;42.262;12.210;2022-09-24T10:07:15;19.60;99.90
74869;DHT22;63419;42.262;12.210;2022-09-24T10:09:44;20.00;99.90
74869;DHT22;63419;42.262;12.210;2022-09-24T10:12:20;20.00;99.90
74869;DHT22;63419;42.262;12.210;2022-09-24T10:15:03;20.10;99.90
74869;DHT22;63419;42.262;12.210;2022-09-24T10:17:43;21.40;99.90
74869;DHT22;63419;42.262;12.210;2022-09-24T10:20:27;20.80;99.90
74869;DHT22;63419;42.262;12.210;2022-09-24T10:23:00;21.90;99.90
74869;DHT22;63419;42.262;12.210;2022-09-24T10:25:31;21.30;99.90
74869;DHT22;63419;42.262;12.210;2022-09-24T10:28:06;21.90;99.90
74869;DHT22;63419;42.262;12.210;2022-09-24T10:30:59;22.40;99.90
74869;DHT22;63419;42.262;12.210;2022-09-24T10:33:43;21.90;99.90
74869;DHT22;63419;42.262;12.210;2022-09-24T10:36:30;22.00;99.90
74869;DHT22;63419;42.262;12.210;2022-09-24T10:39:11;21.80;99.90
74869;DHT22;63419;42.262;12.210;2022-09-24T10:41:49;21.80;99.90
74869;DHT22;63419;42.262;12.210;2022-09-24T10:44:19;21.10;99.90
74869;DHT22;63419;42.262;12.210;2022-09-24T10:50:29;19.90;99.90
74869;DHT22;63419;42.262;12.210;2022-09-24T10:53:05;19.60;99.90
74869;DHT22;63419;42.262;12.210;2022-09-24T11:07:22;18.40;99.90
74869;DHT22;63419;42.262;12.210;2022-09-24T11:19:02;18.00;99.90
74869;DHT22;63419;42.262;12.210;2022-09-24T11:22:21;17.60;99.90
74869;DHT22;63419;42.262;12.210;2022-09-24T11:31:25;18.50;99.90
74869;DHT22;63419;42.262;12.210;2022-09-24T11:53:11;19.40;99.90
74869;DHT22;63419;42.262;12.210;2022-09-24T11:55:49;18.90;99.90
74869;DHT22;63419;42.262;12.210;2022-09-24T11:58:35;18.60;99.90
74869;DHT22;63419;42.262;12.210;2022-09-24T12:01:14;19.00;99.90
74869;DHT22;63419;42.262;12.210;2022-09-24T12:03:56;18.60;99.90
74869;DHT22;63419;42.262;12.210;2022-09-24T12:06:31;18.70;99.90
74869;DHT22;63419;42.262;12.210;2022-09-24T12:12:09;19.70;99.90
74869;DHT22;63419;42.262;12.210;2022-09-24T12:14:53;20.40;99.90
74869;DHT22;63419;42.262;12.210;2022-09-24T12:17:48;20.20;99.90
74869;DHT22;63419;42.262;12.210;2022-09-24T12:20:26;20.20;99.90
74869;DHT22;63419;42.262;12.210;2022-09-24T12:23:10;20.70;99.90
74869;DHT22;63419;42.262;12.210;2022-09-24T12:25:44;21.40;99.90
74869;DHT22;63419;42.262;12.210;2022-09-24T12:28:16;21.70;99.90
74869;DHT22;63419;42.262;12.210;2022-09-24T12:31:30;21.50;99.90
74869;DHT22;63419;42.262;12.210;2022-09-24T12:34:51;20.60;99.90
74869;DHT22;63419;42.262;12.210;2022-09-24T12:37:32;19.80;99.90
74869;DHT22;63419;42.262;12.210;2022-09-24T12:40:15;19.90;99.90
74869;DHT22;63419;42.262;12.210;2022-09-24T12:42:59;19.20;99.90
74869;DHT22;63419;42.262;12.210;2022-09-24T12:45:31;19.00;99.90
74869;DHT22;63419;42.262;12.210;2022-09-24T12:48:01;18.50;99.90
74869;DHT22;63419;42.262;12.210;2022-09-24T12:50:34;18.60;99.90
74869;DHT22;63419;42.262;12.210;2022-09-24T12:53:19;18.40;99.90
74869;DHT22;63419;42.262;12.210;2022-09-24T12:55:58;18.60;99.90
74869;DHT22;63419;42.262;12.210;2022-09-24T12:58:39;18.60;99.90
74869;DHT22;63419;42.262;12.210;2022-09-24T13:01:28;18.60;99.90
74869;DHT22;63419;42.262;12.210;2022-09-24T13:06:45;18.50;99.90
74869;DHT22;63419;42.262;12.210;2022-09-24T13:14:56;18.60;99.90
74869;DHT22;63419;42.262;12.210;2022-09-24T13:17:33;18.50;99.90
74869;DHT22;63419;42.262;12.210;2022-09-24T13:20:17;18.30;99.90
74869;DHT22;63419;42.262;12.210;2022-09-24T13:22:57;18.30;99.90
74869;DHT22;63419;42.262;12.210;2022-09-24T13:25:58;18.30;99.90
74869;DHT22;63419;42.262;12.210;2022-09-24T13:34:10;18.10;99.90
74869;DHT22;63419;42.262;12.210;2022-09-24T13:36:53;18.00;99.90
74869;DHT22;63419;42.262;12.210;2022-09-24T13:42:30;17.60;99.90
74869;DHT22;63419;42.262;12.210;2022-09-24T13:45:04;17.60;99.90
74869;DHT22;63419;42.262;12.210;2022-09-24T13:47:47;17.60;99.90
74869;DHT22;63419;42.262;12.210;2022-09-24T13:50:29;17.50;99.90
74869;DHT22;63419;42.262;12.210;2022-09-24T13:53:07;17.40;99.90
74869;DHT22;63419;42.262;12.210;2022-09-24T13:55:58;17.50;99.90
74869;DHT22;63419;42.262;12.210;2022-09-24T13:58:31;17.50;99.90
74869;DHT22;63419;42.262;12.210;2022-09-24T14:01:03;17.50;99.90
74869;DHT22;63419;42.262;12.210;2022-09-24T14:03:40;17.60;99.90
74869;DHT22;63419;42.262;12.210;2022-09-24T14:06:16;17.30;99.90
74869;DHT22;63419;42.262;12.210;2022-09-24T14:08:48;17.20;99.90
74869;DHT22;63419;42.262;12.210;2022-09-24T14:11:20;17.00;99.90
74869;DHT22;63419;42.262;12.210;2022-09-24T14:13:53;16.90;99.90
74869;DHT22;63419;42.262;12.210;2022-09-24T14:16:24;16.70;99.90
74869;DHT22;63419;42.262;12.210;2022-09-24T14:19:02;16.60;99.90
74869;DHT22;63419;42.262;12.210;2022-09-24T14:21:45;16.40;99.90
74869;DHT22;63419;42.262;12.210;2022-09-24T14:27:06;16.30;99.90
74869;DHT22;63419;42.262;12.210;2022-09-24T14:35:09;16.20;99.90
74869;DHT22;63419;42.262;12.210;2022-09-24T14:37:53;16.20;99.90
74869;DHT22;63419;42.262;12.210;2022-09-24T14:40:27;16.20;99.90
74869;DHT22;63419;42.262;12.210;2022-09-24T14:42:58;16.20;99.90
74869;DHT22;63419;42.262;12.210;2022-09-24T14:45:32;16.20;99.90
74869;DHT22;63419;42.262;12.210;2022-09-24T14:48:14;16.10;99.90
74869;DHT22;63419;42.262;12.210;2022-09-24T14:50:54;16.20;99.90
74869;DHT22;63419;42.262;12.210;2022-09-24T14:53:32;16.10;99.90
74869;DHT22;63419;42.262;12.210;2022-09-24T14:56:18;16.10;99.90
74869;DHT22;63419;42.262;12.210;2022-09-24T14:58:46;15.90;99.90
74869;DHT22;63419;42.262;12.210;2022-09-24T15:01:17;15.90;99.90
74869;DHT22;63419;42.262;12.210;2022-09-24T15:03:54;15.90;99.90
74869;DHT22;63419;42.262;12.210;2022-09-24T15:06:30;15.80;99.90
74869;DHT22;63419;42.262;12.210;2022-09-24T15:09:22;15.80;99.90
74869;DHT22;63419;42.262;12.210;2022-09-24T15:12:18;15.90;99.90
74869;DHT22;63419;42.262;12.210;2022-09-24T15:14:59;15.80;99.90
74869;DHT22;63419;42.262;12.210;2022-09-24T15:17:30;15.80;99.90
74869;DHT22;63419;42.262;12.210;2022-09-24T15:20:00;15.80;99.90
74869;DHT22;63419;42.262;12.210;2022-09-24T15:22:29;15.70;99.90
74869;DHT22;63419;42.262;12.210;2022-09-24T15:24:58;15.70;99.90
74869;DHT22;63419;42.262;12.210;2022-09-24T15:27:32;15.80;99.90
74869;DHT22;63419;42.262;12.210;2022-09-24T15:30:05;15.80;99.90
74869;DHT22;63419;42.262;12.210;2022-09-24T15:32:34;15.80;99.90
74869;DHT22;63419;42.262;12.210;2022-09-24T15:35:02;15.70;99.90
74869;DHT22;63419;42.262;12.210;2022-09-24T15:37:38;15.60;99.90
74869;DHT22;63419;42.262;12.210;2022-09-24T15:40:18;15.60;99.90
74869;DHT22;63419;42.262;12.210;2022-09-24T15:42:49;15.60;99.90
74869;DHT22;63419;42.262;12.210;2022-09-24T15:45:22;15.70;99.90
74869;DHT22;63419;42.262;12.210;2022-09-24T15:47:53;15.60;99.90
74869;DHT22;63419;42.262;12.210;2022-09-24T15:50:21;15.70;99.90
74869;DHT22;63419;42.262;12.210;2022-09-24T15:53:22;15.70;99.90
74869;DHT22;63419;42.262;12.210;2022-09-24T15:55:58;15.80;99.90
74869;DHT22;63419;42.262;12.210;2022-09-24T15:58:27;15.70;99.90
74869;DHT22;63419;42.262;12.210;2022-09-24T16:00:56;15.70;99.90
74869;DHT22;63419;42.262;12.210;2022-09-24T16:03:29;15.70;99.90
74869;DHT22;63419;42.262;12.210;2022-09-24T16:06:00;15.60;99.90
74869;DHT22;63419;42.262;12.210;2022-09-24T16:08:29;15.60;99.90
74869;DHT22;63419;42.262;12.210;2022-09-24T16:10:56;15.60;99.90
74869;DHT22;63419;42.262;12.210;2022-09-24T16:13:24;15.80;99.90
74869;DHT22;63419;42.262;12.210;2022-09-24T16:15:52;15.80;99.90
74869;DHT22;63419;42.262;12.210;2022-09-24T16:18:19;15.60;99.90
74869;DHT22;63419;42.262;12.210;2022-09-24T16:20:52;15.50;99.90
74869;DHT22;63419;42.262;12.210;2022-09-24T16:23:19;15.50;99.90
74869;DHT22;63419;42.262;12.210;2022-09-24T16:25:57;15.30;99.90
74869;DHT22;63419;42.262;12.210;2022-09-24T16:28:26;15.30;99.90
74869;DHT22;63419;42.262;12.210;2022-09-24T16:30:56;15.30;99.90
74869;DHT22;63419;42.262;12.210;2022-09-24T16:33:24;15.10;99.90
74869;DHT22;63419;42.262;12.210;2022-09-24T16:35:52;15.00;99.90
74869;DHT22;63419;42.262;12.210;2022-09-24T16:38:22;14.90;99.90
74869;DHT22;63419;42.262;12.210;2022-09-24T16:40:58;14.90;99.90
74869;DHT22;63419;42.262;12.210;2022-09-24T16:43:31;14.90;99.90
74869;DHT22;63419;42.262;12.210;2022-09-24T16:46:01;14.90;99.90
74869;DHT22;63419;42.262;12.210;2022-09-24T16:48:32;15.00;99.90
74869;DHT22;63419;42.262;12.210;2022-09-24T16:53:29;15.00;99.90
74869;DHT22;63419;42.262;12.210;2022-09-24T16:58:35;14.90;99.90
74869;DHT22;63419;42.262;12.210;2022-09-24T17:01:07;14.90;99.90
74869;DHT22;63419;42.262;12.210;2022-09-24T17:03:36;14.90;99.90
74869;DHT22;63419;42.262;12.210;2022-09-24T17:06:05;15.00;99.90
74869;DHT22;63419;42.262;12.210;2022-09-24T17:08:35;15.10;99.90
74869;DHT22;63419;42.262;12.210;2022-09-24T17:11:21;15.20;99.90
74869;DHT22;63419;42.262;12.210;2022-09-24T17:13:49;15.20;99.90
74869;DHT22;63419;42.262;12.210;2022-09-24T17:16:18;15.10;99.90
74869;DHT22;63419;42.262;12.210;2022-09-24T17:18:46;15.10;99.90
74869;DHT22;63419;42.262;12.210;2022-09-24T17:21:14;15.00;99.90
74869;DHT22;63419;42.262;12.210;2022-09-24T17:23:42;15.00;99.90
74869;DHT22;63419;42.262;12.210;2022-09-24T17:26:13;15.00;99.90
74869;DHT22;63419;42.262;12.210;2022-09-24T17:28:43;15.00;99.90
74869;DHT22;63419;42.262;12.210;2022-09-24T17:31:16;14.90;99.90
74869;DHT22;63419;42.262;12.210;2022-09-24T17:34:02;14.90;99.90
74869;DHT22;63419;42.262;12.210;2022-09-24T17:36:32;14.90;99.90
74869;DHT22;63419;42.262;12.210;2022-09-24T17:39:00;14.70;99.90
74869;DHT22;63419;42.262;12.210;2022-09-24T17:41:28;14.70;99.90
74869;DHT22;63419;42.262;12.210;2022-09-24T17:44:00;14.80;99.90
74869;DHT22;63419;42.262;12.210;2022-09-24T17:46:31;14.80;99.90
74869;DHT22;63419;42.262;12.210;2022-09-24T17:48:59;14.70;99.90
74869;DHT22;63419;42.262;12.210;2022-09-24T17:51:31;14.80;99.90
74869;DHT22;63419;42.262;12.210;2022-09-24T17:54:05;14.90;99.90
74869;DHT22;63419;42.262;12.210;2022-09-24T17:56:41;14.90;99.90
74869;DHT22;63419;42.262;12.210;2022-09-24T17:59:13;14.80;99.90
74869;DHT22;63419;42.262;12.210;2022-09-24T18:01:44;14.80;99.90
74869;DHT22;63419;42.262;12.210;2022-09-24T18:04:14;14.80;99.90
74869;DHT22;63419;42.262;12.210;2022-09-24T18:06:45;14.80;99.90
74869;DHT22;63419;42.262;12.210;2022-09-24T18:09:17;14.90;99.90
74869;DHT22;63419;42.262;12.210;2022-09-24T18:11:47;14.80;99.90
74869;DHT22;63419;42.262;12.210;2022-09-24T18:14:20;14.70;99.90
74869;DHT22;63419;42.262;12.210;2022-09-24T18:16:50;14.80;99.90
74869;DHT22;63419;42.262;12.210;2022-09-24T18:19:18;14.70;99.90